CEB326 RPVE-RPMY
Flight info
| Callsign | CEB326 |
|---|---|
| Flight time | N/A |
| Altitude | 32000 |
| Route | KLO8A KLO DCT LAMBO B472 IOO W7 SIKIN SIKIN4A |
| Aircraft | A320/M-SDE3FGHIRWY/LB1 |
Departure
| Time | N/A |
|---|---|
| Airport | Godofredo P. Ramos Airport (RPVE) |
Arrival
| Time | 2026-04-25 17:45 |
|---|---|
| Airport | Laguindingan International Airport (RPMY) |
| Time | Latitude | Longitude | Altitude | Speed | Heading |
|---|---|---|---|---|---|
| 2026-04-25 17:34 | 9.04869 | 124.05895 | 14239 ft | 333 kts | 138° |
| 2026-04-25 17:34 | 9.03100 | 124.07427 | 13836 ft | 332 kts | 140° |
| 2026-04-25 17:35 | 9.01139 | 124.08680 | 13406 ft | 332 kts | 150° |
| 2026-04-25 17:35 | 8.99126 | 124.09767 | 12992 ft | 330 kts | 150° |
| 2026-04-25 17:35 | 8.97108 | 124.10855 | 12585 ft | 328 kts | 150° |
| 2026-04-25 17:35 | 8.95098 | 124.11939 | 12173 ft | 326 kts | 149° |
| 2026-04-25 17:36 | 8.93098 | 124.13018 | 11768 ft | 323 kts | 149° |
| 2026-04-25 17:36 | 8.91136 | 124.14076 | 11359 ft | 322 kts | 149° |
| 2026-04-25 17:36 | 8.89164 | 124.15142 | 10947 ft | 320 kts | 149° |
| 2026-04-25 17:36 | 8.87203 | 124.16201 | 10528 ft | 319 kts | 149° |
| 2026-04-25 17:37 | 8.85247 | 124.17258 | 10242 ft | 313 kts | 149° |
| 2026-04-25 17:37 | 8.83349 | 124.18281 | 9918 ft | 309 kts | 149° |
| 2026-04-25 17:37 | 8.81436 | 124.19317 | 9309 ft | 314 kts | 149° |
| 2026-04-25 17:37 | 8.79547 | 124.20339 | 8858 ft | 300 kts | 149° |
| 2026-04-25 17:38 | 8.77767 | 124.21301 | 8449 ft | 287 kts | 149° |
| 2026-04-25 17:38 | 8.77176 | 124.21620 | 8309 ft | 283 kts | 149° |
| 2026-04-25 17:38 | 8.74385 | 124.23125 | 7647 ft | 264 kts | 149° |
| 2026-04-25 17:38 | 8.72788 | 124.23987 | 7257 ft | 255 kts | 149° |
| 2026-04-25 17:39 | 8.71248 | 124.24820 | 6873 ft | 246 kts | 149° |
| 2026-04-25 17:39 | 8.70248 | 124.25340 | 6629 ft | 242 kts | 155° |
| 2026-04-25 17:39 | 8.68092 | 124.25765 | 6121 ft | 236 kts | 173° |
| 2026-04-25 17:39 | 8.66465 | 124.25883 | 5723 ft | 233 kts | 173° |
| 2026-04-25 17:40 | 8.64857 | 124.26001 | 5336 ft | 229 kts | 173° |
| 2026-04-25 17:40 | 8.63276 | 124.26119 | 4956 ft | 226 kts | 173° |
| 2026-04-25 17:40 | 8.62237 | 124.26196 | 4706 ft | 224 kts | 174° |
| 2026-04-25 17:40 | 8.60346 | 124.26791 | 4182 ft | 213 kts | 133° |
| 2026-04-25 17:41 | 8.59735 | 124.28088 | 3831 ft | 206 kts | 94° |
| 2026-04-25 17:41 | 8.59745 | 124.29529 | 3478 ft | 204 kts | 85° |
| 2026-04-25 17:41 | 8.59835 | 124.30470 | 3247 ft | 202 kts | 84° |
| 2026-04-25 17:41 | 8.59996 | 124.31882 | 2894 ft | 201 kts | 84° |
| 2026-04-25 17:42 | 8.60151 | 124.33282 | 2533 ft | 198 kts | 84° |
| 2026-04-25 17:42 | 8.60332 | 124.35070 | 2090 ft | 186 kts | 84° |
| 2026-04-25 17:43 | 8.60715 | 124.39384 | 1193 ft | 138 kts | 85° |
| 2026-04-25 17:43 | 8.60792 | 124.40327 | 1012 ft | 135 kts | 85° |
| 2026-04-25 17:43 | 8.60867 | 124.41274 | 837 ft | 135 kts | 84° |
| 2026-04-25 17:44 | 8.60941 | 124.42224 | 656 ft | 135 kts | 85° |
| 2026-04-25 17:44 | 8.61014 | 124.43174 | 477 ft | 136 kts | 85° |
| 2026-04-25 17:44 | 8.61095 | 124.44127 | 304 ft | 136 kts | 84° |
| 2026-04-25 17:44 | 8.61179 | 124.45068 | 172 ft | 126 kts | 85° |
| 2026-04-25 17:45 | 8.61229 | 124.45697 | 174 ft | 49 kts | 85° |
| 2026-04-25 17:45 | 8.61236 | 124.45778 | 175 ft | 19 kts | 85° |
| 2026-04-25 17:45 | 8.61223 | 124.45946 | 175 ft | 10 kts | 128° |
| 2026-04-25 17:45 | 8.61165 | 124.45969 | 174 ft | 2 kts | 172° |